createdAt,value
2023-04-30T00:01:36.075Z,27.13
2023-04-30T00:04:06.536Z,24.55
2023-04-30T00:06:37.803Z,29.35
2023-04-30T00:09:06.386Z,27.55
2023-04-30T00:11:35.044Z,28.05
2023-04-30T00:14:05.225Z,31.48
2023-04-30T00:16:33.825Z,35.80
2023-04-30T00:19:02.231Z,31.42
2023-04-30T00:21:30.617Z,27.45
2023-04-30T00:24:00.466Z,27.25
2023-04-30T00:26:28.797Z,26.35
2023-04-30T00:28:58.729Z,31.75
2023-04-30T00:31:28.682Z,29.75
2023-04-30T00:33:57.635Z,29.33
2023-04-30T00:36:26.152Z,29.33
2023-04-30T00:38:55.710Z,29.08
2023-04-30T00:41:24.641Z,33.03
2023-04-30T00:43:53.109Z,29.92
2023-04-30T00:46:22.805Z,29.08
2023-04-30T00:48:53.095Z,33.03
2023-04-30T00:51:22.445Z,28.67
2023-04-30T00:53:51.374Z,35.63
2023-04-30T00:56:20.194Z,31.35
2023-04-30T00:58:51.474Z,31.35
2023-04-30T01:01:19.948Z,32.08
2023-04-30T01:03:48.399Z,27.75
2023-04-30T01:06:17.922Z,29.77
2023-04-30T01:08:48.969Z,36.33
2023-04-30T01:11:29.633Z,32.88
2023-04-30T01:14:08.629Z,31.58
2023-04-30T01:16:44.440Z,36.85
2023-04-30T01:19:34.123Z,33.42
2023-04-30T01:22:06.301Z,33.30
2023-04-30T01:25:00.713Z,34.60
2023-04-30T01:27:40.799Z,31.35
2023-04-30T01:30:11.574Z,36.15
2023-04-30T01:32:39.772Z,30.15
2023-04-30T01:35:08.646Z,34.85
2023-04-30T01:37:47.885Z,31.55
2023-04-30T01:40:33.188Z,30.05
2023-04-30T01:43:14.346Z,32.50
2023-04-30T01:45:58.379Z,32.75
2023-04-30T01:48:41.279Z,33.58
2023-04-30T01:51:17.404Z,30.60
2023-04-30T01:53:47.170Z,36.65
2023-04-30T01:56:28.372Z,33.58
2023-04-30T01:58:56.913Z,36.85
2023-04-30T02:01:32.070Z,36.38
2023-04-30T02:04:01.527Z,34.33
2023-04-30T02:06:30.296Z,35.97
2023-04-30T02:09:03.290Z,29.80
2023-04-30T02:11:31.823Z,32.45
2023-04-30T02:14:01.728Z,33.00
2023-04-30T02:16:31.870Z,31.13
2023-04-30T02:19:00.207Z,36.08
2023-04-30T02:21:30.146Z,29.42
2023-04-30T02:23:58.424Z,28.05
2023-04-30T02:26:26.638Z,36.30
2023-04-30T02:28:54.910Z,32.65
2023-04-30T02:31:23.162Z,30.30
2023-04-30T02:33:52.693Z,27.20
2023-04-30T02:36:20.941Z,34.22
2023-04-30T02:38:49.086Z,34.10
2023-04-30T02:41:17.261Z,27.13
2023-04-30T02:43:45.561Z,32.70
2023-04-30T02:46:13.823Z,36.92
2023-04-30T02:48:41.993Z,28.20
2023-04-30T02:51:11.774Z,32.80
2023-04-30T02:53:39.923Z,33.15
2023-04-30T02:56:09.196Z,27.92
2023-04-30T02:58:37.402Z,36.38
2023-04-30T03:01:05.695Z,29.60
2023-04-30T03:03:34.100Z,31.08
2023-04-30T03:06:03.545Z,29.25
2023-04-30T03:08:33.381Z,29.30
2023-04-30T03:11:01.989Z,35.80
2023-04-30T03:13:30.475Z,30.10
2023-04-30T03:16:00.620Z,31.17
2023-04-30T03:18:32.771Z,31.00
2023-04-30T03:21:01.082Z,32.45
2023-04-30T03:23:29.934Z,31.20
2023-04-30T03:25:59.679Z,29.80
2023-04-30T03:28:27.987Z,31.20
2023-04-30T03:30:56.243Z,36.45
2023-04-30T03:33:24.510Z,31.02
2023-04-30T03:35:53.467Z,29.05
2023-04-30T03:38:21.650Z,26.65
2023-04-30T03:40:49.974Z,29.23
2023-04-30T03:43:19.688Z,33.78
2023-04-30T03:45:47.929Z,29.88
2023-04-30T03:48:16.369Z,37.50
2023-04-30T03:50:45.260Z,32.63
2023-04-30T03:53:13.544Z,36.63
2023-04-30T03:55:42.250Z,33.10
2023-04-30T03:58:10.679Z,33.83
2023-04-30T04:00:42.717Z,32.05
2023-04-30T04:03:10.882Z,33.03
2023-04-30T04:05:39.056Z,29.08
2023-04-30T04:08:07.681Z,36.70
2023-04-30T04:10:36.431Z,33.22
2023-04-30T04:13:06.447Z,40.25
2023-04-30T04:15:34.912Z,33.45
2023-04-30T04:18:06.988Z,35.83
2023-04-30T04:20:35.332Z,35.28
2023-04-30T04:23:03.770Z,45.53
2023-04-30T04:25:33.446Z,48.33
2023-04-30T04:28:04.321Z,38.05
2023-04-30T04:30:32.480Z,37.58
2023-04-30T04:33:01.149Z,38.15
2023-04-30T04:35:31.151Z,35.53
2023-04-30T04:37:59.398Z,36.85
2023-04-30T04:40:29.885Z,36.03
2023-04-30T04:42:59.842Z,44.08
2023-04-30T04:45:28.669Z,38.72
2023-04-30T04:47:57.162Z,43.25
2023-04-30T04:50:25.516Z,39.95
2023-04-30T04:52:55.275Z,40.58
2023-04-30T04:55:23.521Z,36.20
2023-04-30T04:57:51.704Z,31.80
2023-04-30T05:00:22.109Z,35.17
2023-04-30T05:02:50.902Z,43.05
2023-04-30T05:05:19.172Z,35.97
2023-04-30T05:07:47.440Z,40.05
2023-04-30T05:10:17.212Z,39.08
2023-04-30T05:12:45.329Z,36.35
2023-04-30T05:15:13.699Z,41.15
2023-04-30T05:17:42.234Z,40.22
2023-04-30T05:20:13.639Z,44.17
2023-04-30T05:22:41.976Z,43.28
2023-04-30T05:25:11.242Z,42.25
2023-04-30T05:27:40.960Z,39.25
2023-04-30T05:30:10.760Z,45.63
2023-04-30T05:32:39.817Z,41.72
2023-04-30T05:35:09.570Z,41.88
2023-04-30T05:37:45.480Z,35.67
2023-04-30T05:40:15.010Z,40.10
2023-04-30T05:42:45.134Z,35.45
2023-04-30T05:45:15.924Z,31.13
2023-04-30T05:47:44.348Z,29.67
2023-04-30T05:50:15.008Z,28.73
2023-04-30T05:52:43.261Z,29.17
2023-04-30T05:55:13.885Z,22.88
2023-04-30T05:57:46.467Z,28.02
2023-04-30T06:00:16.124Z,20.35
2023-04-30T06:02:44.533Z,20.98
2023-04-30T06:05:16.373Z,27.58
2023-04-30T06:07:44.921Z,20.70
2023-04-30T06:10:16.236Z,19.90
2023-04-30T06:12:49.025Z,20.00
2023-04-30T06:15:17.930Z,18.65
2023-04-30T06:17:51.484Z,14.60
2023-04-30T06:20:22.567Z,16.30
2023-04-30T06:22:53.213Z,15.18
2023-04-30T06:25:22.152Z,16.77
2023-04-30T06:27:54.191Z,17.08
2023-04-30T06:30:22.666Z,14.98
2023-04-30T06:32:50.912Z,15.57
2023-04-30T06:35:19.059Z,15.77
2023-04-30T06:37:50.070Z,14.60
2023-04-30T06:40:21.529Z,18.25
2023-04-30T06:42:54.592Z,13.50
2023-04-30T06:45:23.073Z,16.55
2023-04-30T06:47:52.950Z,12.45
2023-04-30T06:50:22.243Z,14.07
2023-04-30T06:52:50.633Z,14.23
2023-04-30T06:55:19.002Z,15.27
2023-04-30T06:57:47.232Z,14.63
2023-04-30T07:00:18.496Z,14.85
2023-04-30T07:02:48.035Z,15.45
2023-04-30T07:05:16.526Z,11.65
2023-04-30T07:07:44.790Z,16.88
2023-04-30T07:10:13.525Z,16.00
2023-04-30T07:12:42.000Z,12.85
2023-04-30T07:15:11.408Z,11.38
2023-04-30T07:17:41.985Z,13.52
2023-04-30T07:20:11.879Z,9.50
2023-04-30T07:22:40.312Z,13.55
2023-04-30T07:25:10.087Z,11.50
2023-04-30T07:27:38.351Z,12.10
2023-04-30T07:30:13.152Z,10.13
2023-04-30T07:32:45.966Z,12.80
2023-04-30T07:35:14.783Z,14.50
2023-04-30T07:37:43.913Z,12.50
2023-04-30T07:40:21.966Z,11.75
2023-04-30T07:42:56.915Z,10.95
2023-04-30T07:45:25.293Z,11.82
2023-04-30T07:47:55.067Z,12.55
2023-04-30T07:50:23.468Z,15.25
2023-04-30T07:52:51.935Z,12.52
2023-04-30T07:55:20.241Z,10.80
2023-04-30T07:57:48.673Z,11.63
2023-04-30T08:00:17.654Z,7.25
2023-04-30T08:02:48.328Z,9.57
2023-04-30T08:05:21.351Z,11.23
2023-04-30T08:07:49.585Z,9.45
2023-04-30T08:10:17.814Z,9.48
2023-04-30T08:12:47.204Z,9.35
2023-04-30T08:15:19.248Z,7.93
2023-04-30T08:17:47.464Z,8.70
2023-04-30T08:20:17.167Z,8.68
2023-04-30T08:22:45.777Z,9.40
2023-04-30T08:25:14.367Z,7.03
2023-04-30T08:27:42.632Z,8.68
2023-04-30T08:30:12.585Z,8.85
2023-04-30T08:32:41.551Z,8.30
2023-04-30T08:35:11.232Z,8.65
2023-04-30T08:37:43.353Z,9.18
2023-04-30T08:40:14.152Z,12.05
2023-04-30T08:42:52.100Z,9.55
2023-04-30T08:45:20.968Z,9.20
2023-04-30T08:47:58.248Z,7.20
2023-04-30T08:50:26.785Z,6.85
2023-04-30T08:53:00.101Z,6.78
2023-04-30T08:55:29.909Z,7.07
2023-04-30T08:57:58.391Z,8.60
2023-04-30T09:00:27.902Z,10.25
2023-04-30T09:02:56.559Z,11.40
2023-04-30T09:05:25.397Z,7.35
2023-04-30T09:08:03.129Z,7.82
2023-04-30T09:10:34.738Z,15.30
2023-04-30T09:13:05.713Z,62.97
2023-04-30T09:15:35.979Z,9.88
2023-04-30T09:18:13.155Z,10.63
2023-04-30T09:20:57.347Z,9.90
2023-04-30T09:23:26.785Z,8.00
2023-04-30T09:25:55.006Z,8.68
2023-04-30T09:28:26.621Z,9.27
2023-04-30T09:30:56.772Z,9.07
2023-04-30T09:33:24.987Z,8.63
2023-04-30T09:35:53.137Z,6.10
2023-04-30T09:38:30.843Z,11.80
2023-04-30T09:41:01.502Z,9.32
2023-04-30T09:43:30.854Z,9.18
2023-04-30T09:46:00.664Z,9.07
2023-04-30T09:48:29.397Z,11.38
2023-04-30T09:50:57.694Z,5.35
2023-04-30T09:53:29.140Z,11.77
2023-04-30T09:56:03.056Z,9.98
2023-04-30T09:58:37.478Z,7.70
2023-04-30T10:01:08.056Z,6.53
2023-04-30T10:03:36.938Z,7.55
2023-04-30T10:06:05.612Z,4.78
2023-04-30T10:08:41.817Z,7.40
2023-04-30T10:11:17.267Z,7.70
2023-04-30T10:13:52.347Z,10.40
2023-04-30T10:16:30.479Z,6.97
2023-04-30T10:19:04.258Z,10.80
2023-04-30T10:21:33.934Z,7.88
2023-04-30T10:24:07.549Z,8.50
2023-04-30T10:26:35.871Z,6.47
2023-04-30T10:29:04.870Z,7.25
2023-04-30T10:31:33.783Z,4.07
2023-04-30T10:34:15.254Z,6.43
2023-04-30T10:36:48.651Z,9.98
2023-04-30T10:39:22.005Z,7.40
2023-04-30T10:41:53.261Z,7.90
2023-04-30T10:44:24.109Z,8.45
2023-04-30T10:47:01.648Z,6.63
2023-04-30T10:49:30.134Z,5.50
2023-04-30T10:52:02.096Z,7.32
2023-04-30T10:54:34.597Z,3.08
2023-04-30T10:57:14.158Z,8.13
2023-04-30T10:59:47.394Z,8.98
2023-04-30T11:02:18.231Z,7.28
2023-04-30T11:05:18.480Z,5.13
2023-04-30T11:07:50.776Z,4.18
2023-04-30T11:10:23.880Z,5.45
2023-04-30T11:12:55.547Z,10.45
2023-04-30T11:15:27.620Z,5.32
2023-04-30T11:17:59.834Z,4.93
2023-04-30T11:20:28.775Z,5.20
2023-04-30T11:23:19.727Z,3.72
2023-04-30T11:25:55.713Z,7.32
2023-04-30T11:28:26.773Z,8.07
2023-04-30T11:30:56.592Z,5.82
2023-04-30T11:33:26.839Z,5.43
2023-04-30T11:35:56.962Z,5.72
2023-04-30T11:38:29.084Z,6.43
2023-04-30T11:41:00.340Z,5.80
2023-04-30T11:43:29.994Z,9.02
2023-04-30T11:46:12.311Z,3.50
2023-04-30T11:48:42.257Z,15.82
2023-04-30T11:51:18.355Z,5.00
2023-04-30T11:53:49.257Z,9.23
2023-04-30T11:56:25.473Z,5.25
2023-04-30T11:58:56.052Z,6.03
2023-04-30T12:01:28.333Z,5.38
2023-04-30T12:03:58.109Z,3.92
2023-04-30T12:06:28.619Z,4.03
2023-04-30T12:08:58.432Z,5.20
2023-04-30T12:11:29.956Z,4.60
2023-04-30T12:14:03.283Z,7.63
2023-04-30T12:16:42.076Z,4.93
2023-04-30T12:19:10.591Z,5.32
2023-04-30T12:21:40.062Z,6.13
2023-04-30T12:24:08.250Z,6.78
2023-04-30T12:26:39.780Z,10.43
2023-04-30T12:29:12.595Z,7.03
2023-04-30T12:31:43.553Z,3.13
2023-04-30T12:34:14.968Z,4.07
2023-04-30T12:36:43.613Z,4.75
2023-04-30T12:39:14.056Z,4.57
2023-04-30T12:41:47.555Z,4.90
2023-04-30T12:44:20.545Z,3.67
2023-04-30T12:46:49.466Z,3.92
2023-04-30T12:49:25.993Z,5.75
2023-04-30T12:52:00.405Z,3.38
2023-04-30T12:54:30.329Z,4.67
2023-04-30T12:57:03.234Z,5.18
2023-04-30T12:59:32.075Z,3.03
2023-04-30T13:02:11.363Z,4.90
2023-04-30T13:04:40.337Z,3.13
2023-04-30T13:07:08.373Z,2.72
2023-04-30T13:09:37.485Z,4.57
2023-04-30T13:12:09.687Z,5.63
2023-04-30T13:14:37.811Z,4.40
2023-04-30T13:17:07.438Z,3.50
2023-04-30T13:19:35.562Z,4.70
2023-04-30T13:22:03.629Z,4.97
2023-04-30T13:24:32.440Z,4.00
2023-04-30T13:27:00.574Z,4.22
2023-04-30T13:29:30.340Z,3.50
2023-04-30T13:31:58.538Z,4.10
2023-04-30T13:34:27.287Z,3.38
2023-04-30T13:36:55.522Z,2.88
2023-04-30T13:39:24.363Z,5.85
2023-04-30T13:41:54.053Z,5.45
2023-04-30T13:44:22.261Z,6.15
2023-04-30T13:46:51.837Z,3.15
2023-04-30T13:49:19.875Z,4.90
2023-04-30T13:51:47.882Z,2.95
2023-04-30T13:54:16.670Z,5.75
2023-04-30T13:56:45.090Z,5.72
2023-04-30T13:59:14.234Z,7.15
2023-04-30T14:01:43.105Z,4.88
2023-04-30T14:04:15.198Z,4.20
2023-04-30T14:06:43.840Z,4.70
2023-04-30T14:09:12.410Z,3.65
2023-04-30T14:11:41.127Z,3.67
2023-04-30T14:14:12.580Z,4.72
2023-04-30T14:16:40.812Z,4.22
2023-04-30T14:19:09.618Z,3.80
2023-04-30T14:21:51.656Z,5.15
2023-04-30T14:24:20.286Z,3.53
2023-04-30T14:26:48.431Z,6.35
2023-04-30T14:29:20.381Z,5.30
2023-04-30T14:31:50.805Z,4.50
2023-04-30T14:34:19.745Z,2.83
2023-04-30T14:36:48.065Z,3.97
2023-04-30T14:39:17.711Z,6.68
2023-04-30T14:41:46.071Z,3.38
2023-04-30T14:44:14.337Z,4.40
2023-04-30T14:46:43.728Z,3.47
2023-04-30T14:49:12.682Z,3.63
2023-04-30T14:51:40.973Z,3.50
2023-04-30T14:54:11.897Z,2.92
2023-04-30T14:56:41.746Z,3.95
2023-04-30T14:59:10.099Z,2.90
2023-04-30T15:01:38.583Z,3.55
2023-04-30T15:04:07.534Z,4.00
2023-04-30T15:06:38.327Z,6.78
2023-04-30T15:09:07.697Z,4.53
2023-04-30T15:11:36.616Z,3.00
2023-04-30T15:14:06.359Z,2.88
2023-04-30T15:16:35.050Z,3.38
2023-04-30T15:19:06.365Z,2.15
2023-04-30T15:21:34.982Z,3.13
2023-04-30T15:24:04.583Z,9.95
2023-04-30T15:26:32.991Z,4.38
2023-04-30T15:29:01.518Z,4.25
2023-04-30T15:31:32.921Z,4.05
2023-04-30T15:34:01.255Z,2.80
2023-04-30T15:36:31.969Z,4.22
2023-04-30T15:39:00.421Z,2.65
2023-04-30T15:41:33.172Z,4.07
2023-04-30T15:44:02.850Z,5.85
2023-04-30T15:46:33.782Z,4.70
2023-04-30T15:49:02.152Z,6.13
2023-04-30T15:51:31.147Z,3.53
2023-04-30T15:54:03.254Z,2.00
2023-04-30T15:56:31.663Z,4.28
2023-04-30T15:59:00.671Z,3.55
2023-04-30T16:01:29.138Z,3.00
2023-04-30T16:04:00.610Z,3.17
2023-04-30T16:06:32.113Z,4.57
2023-04-30T16:09:02.136Z,3.85
2023-04-30T16:11:32.045Z,3.22
2023-04-30T16:14:01.517Z,3.47
2023-04-30T16:16:30.790Z,4.07
2023-04-30T16:19:00.530Z,5.32
2023-04-30T16:21:30.239Z,7.65
2023-04-30T16:23:58.540Z,2.78
2023-04-30T16:26:26.983Z,3.90
2023-04-30T16:28:55.558Z,2.47
2023-04-30T16:31:24.110Z,3.83
2023-04-30T16:33:52.930Z,2.63
2023-04-30T16:36:22.603Z,3.78
2023-04-30T16:38:53.715Z,2.60
2023-04-30T16:41:22.392Z,16.58
2023-04-30T16:43:51.569Z,3.28
2023-04-30T16:46:20.125Z,2.97
2023-04-30T16:48:49.489Z,4.50
2023-04-30T16:51:17.839Z,4.00
2023-04-30T16:53:48.557Z,2.22
2023-04-30T16:56:16.736Z,3.33
2023-04-30T16:58:47.762Z,4.85
2023-04-30T17:01:16.380Z,4.38
2023-04-30T17:03:45.009Z,3.20
2023-04-30T17:06:14.233Z,2.83
2023-04-30T17:08:45.456Z,2.58
2023-04-30T17:11:19.014Z,6.03
2023-04-30T17:13:50.252Z,3.10
2023-04-30T17:16:22.059Z,4.13
2023-04-30T17:18:50.595Z,2.75
2023-04-30T17:21:19.441Z,2.33
2023-04-30T17:23:49.765Z,4.35
2023-04-30T17:26:20.778Z,3.63
2023-04-30T17:28:51.647Z,2.28
2023-04-30T17:31:34.774Z,3.08
2023-04-30T17:34:14.416Z,4.25
2023-04-30T17:36:44.564Z,4.00
2023-04-30T17:39:15.350Z,4.47
2023-04-30T17:41:45.344Z,3.72
2023-04-30T17:44:13.722Z,9.02
2023-04-30T17:46:42.289Z,3.60
2023-04-30T17:49:10.562Z,4.82
2023-04-30T17:51:38.817Z,3.97
2023-04-30T17:54:07.046Z,3.88
2023-04-30T17:56:35.545Z,4.15
2023-04-30T17:59:05.483Z,4.50
2023-04-30T18:01:33.839Z,4.53
2023-04-30T18:04:03.722Z,2.17
2023-04-30T18:06:33.324Z,3.78
2023-04-30T18:09:05.274Z,2.25
2023-04-30T18:11:33.775Z,3.85
2023-04-30T18:14:02.087Z,4.07
2023-04-30T18:16:32.303Z,4.80
2023-04-30T18:19:01.046Z,2.80
2023-04-30T18:21:33.730Z,3.40
2023-04-30T18:24:02.104Z,3.35
2023-04-30T18:26:32.271Z,3.97
2023-04-30T18:29:04.758Z,7.97
2023-04-30T18:34:09.192Z,5.97
2023-04-30T18:36:40.552Z,2.70
2023-04-30T18:39:10.642Z,3.58
2023-04-30T18:41:38.997Z,3.00
2023-04-30T18:44:08.016Z,4.38
2023-04-30T18:46:37.700Z,6.63
2023-04-30T18:49:08.147Z,2.83
2023-04-30T18:51:37.732Z,7.78
2023-04-30T18:54:06.233Z,6.32
2023-04-30T18:56:34.569Z,6.07
2023-04-30T18:59:02.967Z,3.55
2023-04-30T19:01:32.772Z,3.83
2023-04-30T19:04:03.455Z,7.13
2023-04-30T19:06:33.562Z,4.75
2023-04-30T19:09:02.230Z,5.57
2023-04-30T19:11:30.805Z,4.57
2023-04-30T19:14:01.462Z,5.75
2023-04-30T19:16:30.272Z,5.25
2023-04-30T19:19:01.410Z,4.78
2023-04-30T19:21:32.507Z,3.30
2023-04-30T19:24:02.550Z,3.72
2023-04-30T19:26:35.017Z,7.82
2023-04-30T19:29:06.570Z,4.07
2023-04-30T19:31:35.985Z,4.45
2023-04-30T19:34:05.159Z,5.63
2023-04-30T19:36:35.168Z,2.88
2023-04-30T19:39:06.040Z,2.78
2023-04-30T19:41:35.864Z,3.53
2023-04-30T19:44:04.348Z,3.33
2023-04-30T19:46:33.052Z,5.07
2023-04-30T19:49:01.706Z,3.22
2023-04-30T19:51:30.344Z,4.35
2023-04-30T19:54:00.292Z,6.90
2023-04-30T19:56:29.165Z,2.78
2023-04-30T19:58:58.308Z,6.72
2023-04-30T20:01:27.385Z,5.10
2023-04-30T20:03:56.428Z,4.07
2023-04-30T20:06:25.094Z,2.60
2023-04-30T20:08:55.846Z,3.58
2023-04-30T20:11:25.998Z,3.88
2023-04-30T20:13:56.522Z,3.72
2023-04-30T20:16:25.349Z,6.15
2023-04-30T20:18:53.667Z,3.60
2023-04-30T20:21:24.570Z,3.83
2023-04-30T20:23:53.141Z,7.32
2023-04-30T20:26:21.828Z,3.72
2023-04-30T20:28:51.592Z,7.45
2023-04-30T20:31:20.241Z,10.02
2023-04-30T20:33:49.955Z,5.50
2023-04-30T20:36:18.329Z,5.28
2023-04-30T20:38:47.801Z,6.78
2023-04-30T20:41:17.086Z,3.45
2023-04-30T20:43:45.729Z,4.93
2023-04-30T20:46:17.133Z,7.95
2023-04-30T20:48:45.656Z,5.15
2023-04-30T20:51:16.087Z,4.38
2023-04-30T20:53:47.048Z,7.10
2023-04-30T20:56:16.513Z,6.53
2023-04-30T20:58:46.478Z,5.40
2023-04-30T21:01:16.786Z,4.32
2023-04-30T21:03:45.379Z,7.97
2023-04-30T21:06:15.933Z,6.43
2023-04-30T21:08:44.734Z,7.70
2023-04-30T21:11:14.973Z,4.68
2023-04-30T21:13:44.161Z,4.18
2023-04-30T21:16:12.770Z,7.97
2023-04-30T21:18:42.992Z,5.90
2023-04-30T21:21:14.124Z,5.57
2023-04-30T21:23:47.310Z,4.38
2023-04-30T21:26:16.771Z,4.65
2023-04-30T21:28:45.265Z,5.70
2023-04-30T21:31:13.886Z,6.95
2023-04-30T21:33:46.064Z,5.85
2023-04-30T21:36:16.534Z,6.95
2023-04-30T21:38:45.479Z,6.15
2023-04-30T21:41:17.945Z,8.70
2023-04-30T21:43:46.411Z,14.60
2023-04-30T21:46:14.972Z,6.95
2023-04-30T21:48:46.143Z,13.18
2023-04-30T21:51:17.299Z,29.67
2023-04-30T21:53:46.612Z,12.52
2023-04-30T21:56:16.351Z,9.52
2023-04-30T21:58:44.758Z,7.97
2023-04-30T22:01:13.617Z,6.03
2023-04-30T22:03:44.625Z,10.63
2023-04-30T22:06:13.113Z,8.15
2023-04-30T22:08:41.569Z,6.05
2023-04-30T22:11:09.863Z,7.32
2023-04-30T22:13:38.533Z,7.18
2023-04-30T22:16:07.769Z,5.95
2023-04-30T22:18:36.123Z,5.70
2023-04-30T22:21:07.578Z,5.70
2023-04-30T22:23:36.649Z,8.32
2023-04-30T22:26:09.694Z,6.70
2023-04-30T22:28:38.369Z,7.90
2023-04-30T22:31:06.958Z,6.28
2023-04-30T22:33:37.047Z,9.00
2023-04-30T22:36:07.809Z,7.72
2023-04-30T22:38:36.296Z,8.57
2023-04-30T22:41:05.416Z,5.47
2023-04-30T22:43:33.846Z,8.75
2023-04-30T22:46:04.095Z,7.45
2023-04-30T22:48:32.504Z,6.72
2023-04-30T22:51:00.896Z,5.85
2023-04-30T22:53:30.593Z,6.57
2023-04-30T22:55:58.919Z,4.25
2023-04-30T22:58:29.830Z,5.72
2023-04-30T23:00:58.347Z,7.70
2023-04-30T23:03:27.121Z,9.13
2023-04-30T23:05:55.646Z,7.97
2023-04-30T23:08:23.941Z,7.30
2023-04-30T23:10:55.689Z,8.25
2023-04-30T23:13:24.130Z,8.85
2023-04-30T23:15:52.362Z,11.52
2023-04-30T23:18:21.502Z,6.72
2023-04-30T23:20:49.687Z,9.27
2023-04-30T23:23:18.157Z,11.48
2023-04-30T23:25:47.743Z,10.10
2023-04-30T23:28:17.847Z,9.82
2023-04-30T23:30:46.228Z,7.75
2023-04-30T23:33:15.200Z,10.30
2023-04-30T23:35:43.920Z,8.93
2023-04-30T23:38:12.174Z,12.02
2023-04-30T23:40:42.630Z,11.77
2023-04-30T23:43:11.955Z,12.52
2023-04-30T23:45:45.848Z,8.07
2023-04-30T23:48:16.437Z,10.52
2023-04-30T23:50:44.737Z,11.75
2023-04-30T23:53:17.116Z,8.43
2023-04-30T23:55:45.588Z,11.25
2023-04-30T23:58:13.916Z,10.20
